createdAt,value
2023-03-22T00:03:55.305Z,33.55
2023-03-22T00:08:59.784Z,30.77
2023-03-22T00:14:06.274Z,29.45
2023-03-22T00:19:10.723Z,27.08
2023-03-22T00:24:14.869Z,27.90
2023-03-22T00:29:22.555Z,28.15
2023-03-22T00:34:31.523Z,30.83
2023-03-22T00:39:35.746Z,30.95
2023-03-22T00:44:41.457Z,23.13
2023-03-22T00:49:44.943Z,24.60
2023-03-22T00:54:48.815Z,29.67
2023-03-22T00:59:55.836Z,25.70
2023-03-22T01:04:59.635Z,27.20
2023-03-22T01:10:04.968Z,31.73
2023-03-22T01:15:12.327Z,22.50
2023-03-22T01:20:17.818Z,24.05
2023-03-22T01:25:22.282Z,36.72
2023-03-22T01:30:27.641Z,30.70
2023-03-22T01:40:37.133Z,26.00
2023-03-22T01:45:43.778Z,23.92
2023-03-22T01:50:56.222Z,33.20
2023-03-22T01:56:03.989Z,30.13
2023-03-22T02:01:12.294Z,24.30
2023-03-22T02:06:24.577Z,28.52
2023-03-22T02:11:39.058Z,29.92
2023-03-22T02:17:06.883Z,30.13
2023-03-22T02:22:39.437Z,26.58
2023-03-22T02:28:04.809Z,29.83
2023-03-22T02:33:36.828Z,24.73
2023-03-22T02:39:05.016Z,29.42
2023-03-22T02:44:17.510Z,27.10
2023-03-22T02:49:28.287Z,31.98
2023-03-22T02:54:39.853Z,24.65
2023-03-22T02:59:45.004Z,25.42
2023-03-22T03:04:51.808Z,32.42
2023-03-22T03:09:57.277Z,28.67
2023-03-22T03:15:01.735Z,33.80
2023-03-22T03:25:31.701Z,27.85
2023-03-22T03:30:41.456Z,32.30
2023-03-22T03:35:51.917Z,32.88
2023-03-22T03:41:01.711Z,31.20
2023-03-22T03:46:08.446Z,29.08
2023-03-22T03:51:12.592Z,36.90
2023-03-22T03:56:18.238Z,35.93
2023-03-22T04:01:26.430Z,31.33
2023-03-22T04:06:40.060Z,31.27
2023-03-22T04:11:49.959Z,30.90
2023-03-22T04:16:54.865Z,29.25
2023-03-22T04:22:00.940Z,27.05
2023-03-22T04:27:06.387Z,33.33
2023-03-22T04:32:26.267Z,29.63
2023-03-22T04:37:33.712Z,37.22
2023-03-22T04:42:51.444Z,30.13
2023-03-22T04:48:07.867Z,27.63
2023-03-22T04:53:14.043Z,32.08
2023-03-22T04:58:22.154Z,30.87
2023-03-22T05:03:26.457Z,29.30
2023-03-22T05:08:32.173Z,29.63
2023-03-22T05:13:37.517Z,31.47
2023-03-22T05:18:45.453Z,25.98
2023-03-22T05:23:51.590Z,32.80
2023-03-22T05:28:58.570Z,30.33
2023-03-22T05:34:41.919Z,26.20
2023-03-22T05:40:09.708Z,29.95
2023-03-22T05:45:19.283Z,32.72
2023-03-22T05:50:28.146Z,33.58
2023-03-22T05:55:32.639Z,32.53
2023-03-22T06:00:41.668Z,28.60
2023-03-22T06:05:57.820Z,31.73
2023-03-22T06:11:16.105Z,40.28
2023-03-22T06:16:21.945Z,38.30
2023-03-22T06:21:25.689Z,38.22
2023-03-22T06:26:29.858Z,33.47
2023-03-22T06:31:35.043Z,31.67
2023-03-22T06:36:42.464Z,31.13
2023-03-22T06:41:53.540Z,37.13
2023-03-22T06:46:59.440Z,38.20
2023-03-22T06:52:19.281Z,34.47
2023-03-22T06:57:23.505Z,35.72
2023-03-22T07:02:28.346Z,36.78
2023-03-22T07:07:49.900Z,35.28
2023-03-22T07:12:54.092Z,34.35
2023-03-22T07:18:00.397Z,30.38
2023-03-22T07:23:04.972Z,30.52
2023-03-22T07:28:15.334Z,26.58
2023-03-22T07:33:21.152Z,31.67
2023-03-22T07:43:28.525Z,27.20
2023-03-22T07:48:36.532Z,32.58
2023-03-22T07:54:07.834Z,31.30
2023-03-22T08:04:16.711Z,31.30
2023-03-22T08:09:46.710Z,28.40
2023-03-22T08:14:51.230Z,27.20
2023-03-22T08:20:00.654Z,27.80
2023-03-22T08:25:19.997Z,23.30
2023-03-22T08:30:24.718Z,19.10
2023-03-22T08:35:31.700Z,18.02
2023-03-22T08:40:35.630Z,16.92
2023-03-22T08:45:40.060Z,15.47
2023-03-22T08:50:53.063Z,15.90
2023-03-22T08:56:04.961Z,14.80
2023-03-22T09:01:38.808Z,15.68
2023-03-22T09:06:47.055Z,16.27
2023-03-22T09:11:51.231Z,15.45
2023-03-22T09:16:55.201Z,19.48
2023-03-22T09:22:01.048Z,13.25
2023-03-22T09:27:13.855Z,12.32
2023-03-22T09:32:17.711Z,14.48
2023-03-22T09:37:30.368Z,15.68
2023-03-22T09:42:38.985Z,13.57
2023-03-22T09:47:49.144Z,13.82
2023-03-22T09:52:54.828Z,12.65
2023-03-22T09:58:06.501Z,15.80
2023-03-22T10:03:21.814Z,11.00
2023-03-22T10:08:53.843Z,10.50
2023-03-22T10:14:02.202Z,11.32
2023-03-22T10:19:12.805Z,12.50
2023-03-22T10:24:23.294Z,12.43
2023-03-22T10:29:32.365Z,9.23
2023-03-22T10:34:36.704Z,9.60
2023-03-22T10:39:46.357Z,9.77
2023-03-22T10:44:55.164Z,12.82
2023-03-22T10:50:03.569Z,12.93
2023-03-22T10:55:13.094Z,8.63
2023-03-22T11:00:17.767Z,9.50
2023-03-22T11:05:24.880Z,8.48
2023-03-22T11:10:32.974Z,8.80
2023-03-22T11:15:39.930Z,6.95
2023-03-22T11:20:55.562Z,6.43
2023-03-22T11:26:06.852Z,6.13
2023-03-22T11:31:12.401Z,8.50
2023-03-22T11:36:18.929Z,9.05
2023-03-22T11:41:26.100Z,6.60
2023-03-22T11:46:30.927Z,6.75
2023-03-22T11:56:45.214Z,6.20
2023-03-22T12:01:52.219Z,5.38
2023-03-22T12:06:59.164Z,6.97
2023-03-22T12:12:06.642Z,4.70
2023-03-22T12:17:16.898Z,4.35
2023-03-22T12:22:26.472Z,4.55
2023-03-22T12:27:37.524Z,5.07
2023-03-22T12:32:43.945Z,5.57
2023-03-22T12:37:52.062Z,3.10
2023-03-22T12:43:06.127Z,9.15
2023-03-22T12:48:17.000Z,5.87
2023-03-22T12:53:27.407Z,5.75
2023-03-22T12:58:32.529Z,7.85
2023-03-22T13:03:40.271Z,4.78
2023-03-22T13:09:16.229Z,5.47
2023-03-22T13:14:58.746Z,6.07
2023-03-22T13:20:25.656Z,8.07
2023-03-22T13:25:31.328Z,6.22
2023-03-22T13:30:49.088Z,10.45
2023-03-22T13:35:56.796Z,8.48
2023-03-22T13:41:02.934Z,5.25
2023-03-22T13:46:26.345Z,6.85
2023-03-22T13:51:32.098Z,8.02
2023-03-22T13:56:53.057Z,8.55
2023-03-22T14:02:04.500Z,9.23
2023-03-22T14:07:19.660Z,8.57
2023-03-22T14:12:29.328Z,3.58
2023-03-22T14:17:42.487Z,4.80
